createdAt,value
2022-09-26T00:00:22.291Z,77.97
2022-09-26T00:01:22.385Z,77.86
2022-09-26T00:02:25.290Z,77.86
2022-09-26T00:03:25.263Z,77.86
2022-09-26T00:04:23.615Z,77.76
2022-09-26T00:05:22.270Z,77.66
2022-09-26T00:06:22.220Z,77.55
2022-09-26T00:07:22.204Z,77.45
2022-09-26T00:08:22.196Z,77.45
2022-09-26T00:09:22.180Z,77.35
2022-09-26T00:10:22.156Z,77.35
2022-09-26T00:11:22.172Z,77.35
2022-09-26T00:12:22.128Z,77.35
2022-09-26T00:13:22.125Z,77.35
2022-09-26T00:14:22.096Z,77.35
2022-09-26T00:15:22.089Z,77.35
2022-09-26T00:16:22.164Z,77.25
2022-09-26T00:17:22.066Z,77.25
2022-09-26T00:18:22.046Z,77.35
2022-09-26T00:19:22.040Z,77.35
2022-09-26T00:20:22.047Z,77.35
2022-09-26T00:21:22.007Z,77.35
2022-09-26T00:22:25.026Z,77.35
2022-09-26T00:23:24.998Z,77.45
2022-09-26T00:24:21.967Z,77.35
2022-09-26T00:25:22.017Z,77.35
2022-09-26T00:26:21.940Z,77.35
2022-09-26T00:27:21.929Z,77.25
2022-09-26T00:28:21.917Z,77.25
2022-09-26T00:29:21.906Z,77.14
2022-09-26T00:30:21.941Z,77.04
2022-09-26T00:31:22.074Z,77.04
2022-09-26T00:32:21.851Z,76.83
2022-09-26T00:33:21.850Z,76.73
2022-09-26T00:34:21.833Z,76.63
2022-09-26T00:35:21.821Z,76.63
2022-09-26T00:36:26.858Z,76.63
2022-09-26T00:37:22.800Z,76.53
2022-09-26T00:38:21.779Z,76.49
2022-09-26T00:39:21.771Z,76.49
2022-09-26T00:40:21.777Z,76.39
2022-09-26T00:41:21.742Z,76.39
2022-09-26T00:42:24.755Z,76.39
2022-09-26T00:43:24.733Z,76.39
2022-09-26T00:44:21.707Z,76.28
2022-09-26T00:45:21.854Z,76.28
2022-09-26T00:46:21.686Z,76.28
2022-09-26T00:47:21.662Z,76.18
2022-09-26T00:48:21.634Z,76.18
2022-09-26T00:49:21.624Z,76.18
2022-09-26T00:50:21.616Z,76.18
2022-09-26T00:51:21.633Z,75.97
2022-09-26T00:52:21.585Z,76.07
2022-09-26T00:53:21.573Z,76.07
2022-09-26T00:54:21.560Z,76.07
2022-09-26T00:55:21.575Z,76.07
2022-09-26T00:56:21.536Z,75.97
2022-09-26T00:57:21.553Z,75.97
2022-09-26T00:58:21.497Z,75.97
2022-09-26T00:59:21.488Z,75.97
2022-09-26T01:00:21.647Z,75.87
2022-09-26T01:01:21.534Z,75.87
2022-09-26T01:02:24.512Z,75.94
2022-09-26T01:03:24.456Z,75.94
2022-09-26T01:04:21.425Z,75.87
2022-09-26T01:05:21.407Z,75.97
2022-09-26T01:06:21.427Z,75.77
2022-09-26T01:07:21.381Z,75.73
2022-09-26T01:08:21.386Z,75.84
2022-09-26T01:09:21.359Z,75.84
2022-09-26T01:10:21.339Z,75.84
2022-09-26T01:11:21.360Z,75.73
2022-09-26T01:12:21.395Z,75.73
2022-09-26T01:13:21.327Z,75.73
2022-09-26T01:14:21.289Z,75.73
2022-09-26T01:15:21.273Z,75.63
2022-09-26T01:16:21.337Z,75.63
2022-09-26T01:17:21.242Z,75.63
2022-09-26T01:18:21.261Z,75.73
2022-09-26T01:19:21.221Z,75.63
2022-09-26T01:20:21.361Z,75.73
2022-09-26T01:21:21.194Z,75.63
2022-09-26T01:22:24.172Z,75.63
2022-09-26T01:23:24.184Z,75.73
2022-09-26T01:24:21.143Z,75.63
2022-09-26T01:25:21.142Z,75.63
2022-09-26T01:26:21.153Z,75.63
2022-09-26T01:27:21.120Z,75.63
2022-09-26T01:28:21.106Z,75.52
2022-09-26T01:29:21.085Z,75.52
2022-09-26T01:30:21.066Z,75.42
2022-09-26T01:31:21.124Z,75.49
2022-09-26T01:32:21.044Z,75.39
2022-09-26T01:33:21.024Z,75.39
2022-09-26T01:34:21.015Z,75.29
2022-09-26T01:35:21.007Z,75.29
2022-09-26T01:36:21.145Z,75.39
2022-09-26T01:37:20.987Z,75.29
2022-09-26T01:38:20.966Z,75.39
2022-09-26T01:39:20.947Z,75.29
2022-09-26T01:40:20.976Z,75.18
2022-09-26T01:41:20.926Z,75.29
2022-09-26T01:42:23.926Z,75.29
2022-09-26T01:43:23.968Z,75.29
2022-09-26T01:44:20.877Z,75.29
2022-09-26T01:45:20.882Z,75.18
2022-09-26T01:46:20.896Z,75.15
2022-09-26T01:47:20.849Z,75.15
2022-09-26T01:48:20.831Z,75.25
2022-09-26T01:49:20.840Z,75.15
2022-09-26T01:50:20.800Z,75.15
2022-09-26T01:51:20.789Z,75.15
2022-09-26T01:52:20.781Z,75.15
2022-09-26T01:53:20.759Z,75.04
2022-09-26T01:54:20.770Z,75.15
2022-09-26T01:55:20.730Z,75.04
2022-09-26T01:56:20.718Z,75.04
2022-09-26T01:57:20.710Z,75.04
2022-09-26T01:58:20.716Z,75.15
2022-09-26T01:59:20.674Z,75.15
2022-09-26T02:00:20.663Z,75.15
2022-09-26T02:01:20.731Z,75.15
2022-09-26T02:02:23.684Z,75.15
2022-09-26T02:03:23.701Z,75.25
2022-09-26T02:04:20.606Z,75.04
2022-09-26T02:05:20.592Z,75.15
2022-09-26T02:06:20.584Z,75.04
2022-09-26T02:07:20.563Z,75.15
2022-09-26T02:08:20.552Z,75.04
2022-09-26T02:09:20.593Z,75.04
2022-09-26T02:10:20.526Z,75.04
2022-09-26T02:11:20.515Z,75.04
2022-09-26T02:12:20.492Z,75.04
2022-09-26T02:13:20.485Z,75.04
2022-09-26T02:14:20.475Z,75.04
2022-09-26T02:15:20.486Z,75.04
2022-09-26T02:16:20.501Z,75.15
2022-09-26T02:17:20.431Z,75.15
2022-09-26T02:18:20.436Z,75.15
2022-09-26T02:19:20.407Z,75.04
2022-09-26T02:20:20.408Z,75.04
2022-09-26T02:21:20.376Z,75.04
2022-09-26T02:22:23.367Z,75.04
2022-09-26T02:23:23.367Z,75.01
2022-09-26T02:24:20.366Z,74.91
2022-09-26T02:25:20.319Z,75.01
2022-09-26T02:26:20.307Z,75.01
2022-09-26T02:27:20.287Z,74.91
2022-09-26T02:28:20.280Z,74.91
2022-09-26T02:29:20.270Z,74.91
2022-09-26T02:30:20.270Z,74.91
2022-09-26T02:31:20.308Z,74.91
2022-09-26T02:32:20.307Z,74.91
2022-09-26T02:33:20.210Z,74.80
2022-09-26T02:34:20.191Z,74.91
2022-09-26T02:35:20.209Z,74.91
2022-09-26T02:36:20.167Z,74.91
2022-09-26T02:37:20.150Z,74.80
2022-09-26T02:38:20.141Z,74.80
2022-09-26T02:39:20.170Z,74.80
2022-09-26T02:40:20.162Z,74.80
2022-09-26T02:41:20.091Z,74.80
2022-09-26T02:42:23.091Z,74.77
2022-09-26T02:43:23.095Z,74.77
2022-09-26T02:44:20.062Z,74.77
2022-09-26T02:45:20.072Z,74.77
2022-09-26T02:46:20.085Z,74.77
2022-09-26T02:47:20.042Z,74.67
2022-09-26T02:48:20.004Z,74.67
2022-09-26T02:49:19.993Z,74.67
2022-09-26T02:50:20.018Z,74.77
2022-09-26T02:51:19.965Z,74.67
2022-09-26T02:52:19.957Z,74.67
2022-09-26T02:53:19.934Z,74.67
2022-09-26T02:54:19.922Z,74.57
2022-09-26T02:55:19.956Z,74.67
2022-09-26T02:56:19.895Z,74.67
2022-09-26T02:57:19.888Z,74.57
2022-09-26T02:58:19.874Z,74.67
2022-09-26T02:59:19.865Z,74.67
2022-09-26T03:00:19.849Z,74.67
2022-09-26T03:01:20.025Z,74.67
2022-09-26T03:02:22.816Z,74.67
2022-09-26T03:03:22.848Z,74.67
2022-09-26T03:04:19.825Z,74.67
2022-09-26T03:05:19.767Z,74.77
2022-09-26T03:06:19.818Z,74.77
2022-09-26T03:07:19.738Z,74.67
2022-09-26T03:08:19.738Z,74.67
2022-09-26T03:09:19.729Z,74.77
2022-09-26T03:10:19.698Z,74.67
2022-09-26T03:11:19.689Z,74.77
2022-09-26T03:12:19.710Z,74.67
2022-09-26T03:13:19.729Z,74.77
2022-09-26T03:14:19.648Z,74.67
2022-09-26T03:15:19.646Z,74.67
2022-09-26T03:16:19.694Z,74.57
2022-09-26T03:17:19.612Z,74.53
2022-09-26T03:18:19.599Z,74.53
2022-09-26T03:19:19.611Z,74.53
2022-09-26T03:20:19.571Z,74.63
2022-09-26T03:21:19.561Z,74.53
2022-09-26T03:22:22.584Z,74.63
2022-09-26T03:23:22.534Z,74.63
2022-09-26T03:24:19.511Z,74.63
2022-09-26T03:25:19.501Z,74.63
2022-09-26T03:26:19.483Z,74.63
2022-09-26T03:27:19.482Z,74.53
2022-09-26T03:28:19.524Z,74.53
2022-09-26T03:29:19.443Z,74.63
2022-09-26T03:30:19.435Z,74.53
2022-09-26T03:31:19.468Z,74.53
2022-09-26T03:32:19.423Z,74.53
2022-09-26T03:33:19.385Z,74.53
2022-09-26T03:34:19.397Z,74.53
2022-09-26T03:35:19.386Z,74.63
2022-09-26T03:36:19.353Z,74.63
2022-09-26T03:37:19.336Z,74.63
2022-09-26T03:38:19.335Z,74.53
2022-09-26T03:39:19.366Z,74.53
2022-09-26T03:40:19.354Z,74.53
2022-09-26T03:41:19.274Z,74.74
2022-09-26T03:42:22.258Z,74.53
2022-09-26T03:43:22.261Z,74.53
2022-09-26T03:44:19.238Z,74.53
2022-09-26T03:45:19.289Z,74.53
2022-09-26T03:46:19.237Z,74.53
2022-09-26T03:47:19.199Z,74.53
2022-09-26T03:48:19.187Z,74.53
2022-09-26T03:49:19.171Z,74.53
2022-09-26T03:50:19.149Z,74.63
2022-09-26T03:51:19.171Z,74.53
2022-09-26T03:52:19.152Z,74.53
2022-09-26T03:53:19.119Z,74.53
2022-09-26T03:54:19.101Z,74.53
2022-09-26T03:55:19.089Z,74.53
2022-09-26T03:56:19.082Z,74.53
2022-09-26T03:57:19.103Z,74.43
2022-09-26T03:58:19.052Z,74.53
2022-09-26T03:59:19.031Z,74.53
2022-09-26T04:00:19.015Z,74.53
2022-09-26T04:01:19.059Z,74.53
2022-09-26T04:02:22.081Z,74.63
2022-09-26T04:03:21.989Z,74.53
2022-09-26T04:04:18.963Z,74.53
2022-09-26T04:05:18.944Z,74.53
2022-09-26T04:06:18.934Z,74.53
2022-09-26T04:07:18.928Z,74.63
2022-09-26T04:08:18.944Z,74.63
2022-09-26T04:09:19.295Z,74.43
2022-09-26T04:10:18.911Z,74.74
2022-09-26T04:11:18.865Z,74.53
2022-09-26T04:12:18.856Z,74.53
2022-09-26T04:13:46.637Z,74.53
2022-09-26T04:14:19.836Z,74.53
2022-09-26T04:15:18.836Z,74.53
2022-09-26T04:16:18.856Z,74.43
2022-09-26T04:17:18.787Z,74.43
2022-09-26T04:18:18.777Z,74.43
2022-09-26T04:19:18.754Z,74.43
2022-09-26T04:20:18.777Z,74.32
2022-09-26T04:21:18.734Z,74.53
2022-09-26T04:22:21.728Z,74.43
2022-09-26T04:23:21.718Z,74.43
2022-09-26T04:24:18.686Z,74.43
2022-09-26T04:25:18.730Z,74.43
2022-09-26T04:26:22.951Z,74.32
2022-09-26T04:27:18.666Z,74.43
2022-09-26T04:28:18.629Z,74.32
2022-09-26T04:29:18.620Z,74.32
2022-09-26T04:30:18.621Z,74.32
2022-09-26T04:31:18.632Z,74.43
2022-09-26T04:32:18.580Z,74.29
2022-09-26T04:33:18.600Z,74.29
2022-09-26T04:34:21.307Z,74.29
2022-09-26T04:35:19.541Z,74.40
2022-09-26T04:36:18.552Z,74.29
2022-09-26T04:37:18.513Z,74.29
2022-09-26T04:38:18.500Z,74.29
2022-09-26T04:39:18.481Z,74.29
2022-09-26T04:40:18.526Z,74.19
2022-09-26T04:41:18.471Z,74.19
2022-09-26T04:42:21.445Z,74.19
2022-09-26T04:43:21.442Z,74.29
2022-09-26T04:44:18.413Z,74.29
2022-09-26T04:45:18.397Z,74.29
2022-09-26T04:46:21.603Z,74.40
2022-09-26T04:47:18.375Z,74.29
2022-09-26T04:48:18.373Z,74.29
2022-09-26T04:49:18.413Z,74.29
2022-09-26T04:50:18.332Z,74.19
2022-09-26T04:51:18.317Z,74.29
2022-09-26T04:52:18.312Z,74.29
2022-09-26T04:53:18.296Z,74.29
2022-09-26T04:54:18.274Z,74.29
2022-09-26T04:55:18.299Z,74.19
2022-09-26T04:56:18.267Z,74.19
2022-09-26T04:57:19.863Z,74.29
2022-09-26T04:58:18.256Z,74.19
2022-09-26T04:59:18.218Z,74.29
2022-09-26T05:00:18.208Z,74.19
2022-09-26T05:01:18.335Z,74.19
2022-09-26T05:02:21.197Z,74.19
2022-09-26T05:03:21.335Z,74.15
2022-09-26T05:04:18.138Z,74.15
2022-09-26T05:05:18.121Z,74.26
2022-09-26T05:06:18.116Z,74.15
2022-09-26T05:07:18.099Z,74.05
2022-09-26T05:08:18.079Z,74.15
2022-09-26T05:09:18.097Z,74.15
2022-09-26T05:10:18.058Z,74.15
2022-09-26T05:11:18.042Z,74.15
2022-09-26T05:12:18.031Z,74.15
2022-09-26T05:13:18.011Z,74.15
2022-09-26T05:14:18.160Z,74.15
2022-09-26T05:15:17.982Z,74.15
2022-09-26T05:16:18.021Z,74.15
2022-09-26T05:17:17.958Z,74.26
2022-09-26T05:18:17.949Z,74.15
2022-09-26T05:19:17.933Z,74.15
2022-09-26T05:20:17.943Z,74.05
2022-09-26T05:21:17.942Z,74.26
2022-09-26T05:22:20.902Z,74.15
2022-09-26T05:23:20.894Z,74.05
2022-09-26T05:24:17.883Z,74.15
2022-09-26T05:25:17.874Z,74.15
2022-09-26T05:26:17.996Z,74.15
2022-09-26T05:27:17.824Z,74.05
2022-09-26T05:28:17.822Z,74.15
2022-09-26T05:29:17.943Z,74.05
2022-09-26T05:30:17.789Z,74.15
2022-09-26T05:31:17.858Z,74.15
2022-09-26T05:32:17.786Z,74.15
2022-09-26T05:33:17.747Z,74.05
2022-09-26T05:34:24.734Z,74.05
2022-09-26T05:35:17.704Z,73.95
2022-09-26T05:36:17.696Z,74.05
2022-09-26T05:37:17.853Z,73.95
2022-09-26T05:38:17.671Z,74.15
2022-09-26T05:39:17.652Z,74.05
2022-09-26T05:40:17.718Z,73.95
2022-09-26T05:41:17.632Z,74.02
2022-09-26T05:42:20.636Z,73.91
2022-09-26T05:43:20.616Z,73.91
2022-09-26T05:44:17.586Z,73.91
2022-09-26T05:45:17.575Z,74.02
2022-09-26T05:46:17.625Z,74.12
2022-09-26T05:47:17.709Z,74.12
2022-09-26T05:48:17.689Z,73.91
2022-09-26T05:49:17.516Z,73.91
2022-09-26T05:50:17.506Z,73.91
2022-09-26T05:51:17.490Z,73.81
2022-09-26T05:52:17.479Z,73.81
2022-09-26T05:53:17.491Z,73.91
2022-09-26T05:54:17.608Z,73.91
2022-09-26T05:55:17.428Z,73.81
2022-09-26T05:56:19.015Z,73.81
2022-09-26T05:57:17.409Z,73.81
2022-09-26T05:58:17.399Z,73.78
2022-09-26T05:59:17.379Z,73.68
2022-09-26T06:00:17.413Z,73.68
2022-09-26T06:01:17.394Z,73.68
2022-09-26T06:02:21.171Z,73.78
2022-09-26T06:03:20.364Z,73.68
2022-09-26T06:04:17.312Z,73.68
2022-09-26T06:05:17.292Z,73.68
2022-09-26T06:06:17.291Z,73.68
2022-09-26T06:07:17.273Z,73.57
2022-09-26T06:08:17.342Z,73.78
2022-09-26T06:09:17.281Z,73.68
2022-09-26T06:10:17.295Z,73.68
2022-09-26T06:11:17.256Z,73.57
2022-09-26T06:12:17.205Z,73.57
2022-09-26T06:13:17.192Z,73.78
2022-09-26T06:14:17.188Z,73.57
2022-09-26T06:15:17.155Z,73.57
2022-09-26T06:16:17.239Z,73.78
2022-09-26T06:17:17.325Z,73.57
2022-09-26T06:18:17.133Z,73.57
2022-09-26T06:19:22.035Z,73.47
2022-09-26T06:20:18.096Z,73.68
2022-09-26T06:21:17.081Z,73.68
2022-09-26T06:22:20.103Z,73.44
2022-09-26T06:23:20.069Z,73.54
2022-09-26T06:24:17.055Z,73.44
2022-09-26T06:25:17.043Z,73.54
2022-09-26T06:26:17.018Z,73.33
2022-09-26T06:27:17.037Z,73.33
2022-09-26T06:28:17.151Z,73.44
2022-09-26T06:29:17.008Z,73.33
2022-09-26T06:30:16.960Z,73.33
2022-09-26T06:31:17.129Z,73.33
2022-09-26T06:32:16.929Z,73.23
2022-09-26T06:33:16.919Z,73.33
2022-09-26T06:34:16.930Z,73.33
2022-09-26T06:35:16.891Z,73.23
2022-09-26T06:36:16.899Z,73.23
2022-09-26T06:37:16.859Z,73.20
2022-09-26T06:38:16.853Z,73.20
2022-09-26T06:39:17.033Z,73.20
2022-09-26T06:40:16.880Z,73.20
2022-09-26T06:41:16.814Z,73.20
2022-09-26T06:42:19.812Z,73.10
2022-09-26T06:43:19.958Z,73.30
2022-09-26T06:44:16.774Z,73.20
2022-09-26T06:45:16.754Z,73.10
2022-09-26T06:46:16.800Z,73.10
2022-09-26T06:47:16.828Z,73.20
2022-09-26T06:48:19.876Z,73.10
2022-09-26T06:49:17.878Z,73.20
2022-09-26T06:50:16.728Z,73.10
2022-09-26T06:51:16.681Z,72.96
2022-09-26T06:52:16.668Z,72.96
2022-09-26T06:53:16.656Z,72.96
2022-09-26T06:54:16.644Z,72.96
2022-09-26T06:55:16.781Z,72.96
2022-09-26T06:56:16.612Z,72.96
2022-09-26T06:57:16.600Z,72.96
2022-09-26T06:58:16.618Z,73.06
2022-09-26T06:59:16.687Z,72.96
2022-09-26T07:00:16.633Z,72.86
2022-09-26T07:01:16.839Z,72.86
2022-09-26T07:02:19.599Z,72.92
2022-09-26T07:03:19.563Z,72.82
2022-09-26T07:04:16.510Z,72.92
2022-09-26T07:05:16.573Z,72.92
2022-09-26T07:06:16.479Z,72.72
2022-09-26T07:07:16.502Z,72.92
2022-09-26T07:08:16.480Z,72.92
2022-09-26T07:09:16.813Z,72.82
2022-09-26T07:10:16.432Z,73.03
2022-09-26T07:11:35.073Z,72.92
2022-09-26T07:12:17.403Z,73.10
2022-09-26T07:13:16.551Z,72.99
2022-09-26T07:14:16.374Z,73.10
2022-09-26T07:15:16.378Z,73.30
2022-09-26T07:16:16.400Z,73.20
2022-09-26T07:17:16.341Z,73.20
2022-09-26T07:18:16.335Z,73.30
2022-09-26T07:19:16.343Z,73.20
2022-09-26T07:20:16.343Z,73.30
2022-09-26T07:21:16.285Z,73.50
2022-09-26T07:22:19.275Z,73.61
2022-09-26T07:23:19.308Z,73.77
2022-09-26T07:24:16.245Z,73.68
2022-09-26T07:25:16.237Z,73.77
2022-09-26T07:26:16.247Z,73.88
2022-09-26T07:27:16.217Z,73.88
2022-09-26T07:28:16.188Z,73.98
2022-09-26T07:29:16.365Z,74.29
2022-09-26T07:30:16.194Z,74.35
2022-09-26T07:31:16.189Z,74.25
2022-09-26T07:32:16.158Z,74.46
2022-09-26T07:33:16.119Z,74.97
2022-09-26T07:34:18.610Z,74.87
2022-09-26T07:35:16.089Z,74.76
2022-09-26T07:36:16.077Z,74.76
2022-09-26T07:37:16.090Z,74.87
2022-09-26T07:38:16.056Z,74.66
2022-09-26T07:39:16.294Z,75.07
2022-09-26T07:40:16.125Z,75.17
2022-09-26T07:41:16.011Z,75.07
2022-09-26T07:42:19.051Z,75.07
2022-09-26T07:43:20.363Z,75.07
2022-09-26T07:45:28.102Z,74.66
2022-09-26T07:46:16.990Z,74.56
2022-09-26T07:47:15.921Z,74.76
2022-09-26T07:48:15.933Z,74.76
2022-09-26T07:49:15.893Z,74.76
2022-09-26T07:50:15.873Z,74.87
2022-09-26T07:51:15.870Z,74.87
2022-09-26T07:52:15.873Z,74.87
2022-09-26T07:53:15.866Z,74.87
2022-09-26T07:54:16.021Z,74.87
2022-09-26T07:55:15.812Z,74.97
2022-09-26T07:56:15.796Z,75.17
2022-09-26T07:57:15.792Z,75.17
2022-09-26T07:58:15.793Z,75.37
2022-09-26T07:59:15.757Z,75.58
2022-09-26T08:00:15.736Z,75.68
2022-09-26T08:01:15.784Z,75.68
2022-09-26T08:02:18.855Z,75.44
2022-09-26T08:03:18.791Z,75.24
2022-09-26T08:04:15.835Z,75.34
2022-09-26T08:05:15.667Z,75.54
2022-09-26T08:06:15.659Z,75.85
2022-09-26T08:07:15.649Z,75.82
2022-09-26T08:08:15.654Z,76.12
2022-09-26T08:09:15.737Z,76.32
2022-09-26T08:10:16.385Z,76.32
2022-09-26T08:11:15.612Z,76.09
2022-09-26T08:12:15.571Z,77.00
2022-09-26T08:13:15.710Z,77.21
2022-09-26T08:14:15.687Z,77.31
2022-09-26T08:15:15.542Z,77.72
2022-09-26T08:16:15.548Z,77.51
2022-09-26T08:17:15.512Z,77.51
2022-09-26T08:18:15.493Z,77.68
2022-09-26T08:19:15.747Z,77.78
2022-09-26T08:20:15.462Z,78.09
2022-09-26T08:21:15.453Z,78.70
2022-09-26T08:22:18.434Z,78.60
2022-09-26T08:23:18.463Z,78.80
2022-09-26T08:24:15.567Z,78.60
2022-09-26T08:25:15.455Z,78.70
2022-09-26T08:26:15.384Z,78.66
2022-09-26T08:27:15.376Z,79.52
2022-09-26T08:28:15.354Z,79.82
2022-09-26T08:29:15.347Z,79.38
2022-09-26T08:30:15.327Z,79.17
2022-09-26T08:31:15.398Z,79.07
2022-09-26T08:32:15.295Z,79.48
2022-09-26T08:33:15.289Z,80.29
2022-09-26T08:34:15.366Z,80.19
2022-09-26T08:35:15.263Z,80.16
2022-09-26T08:36:15.419Z,79.75
2022-09-26T08:37:15.243Z,79.85
2022-09-26T08:38:15.230Z,79.85
2022-09-26T08:39:15.357Z,80.56
2022-09-26T08:40:15.225Z,81.27
2022-09-26T08:41:15.186Z,81.27
2022-09-26T08:42:18.189Z,81.27
2022-09-26T08:43:18.171Z,80.97
2022-09-26T08:44:15.195Z,81.07
2022-09-26T08:45:15.131Z,81.17
2022-09-26T08:46:15.177Z,80.97
2022-09-26T08:47:15.112Z,82.50
2022-09-26T08:48:15.081Z,81.99
2022-09-26T08:49:15.071Z,81.34
2022-09-26T08:50:15.074Z,82.26
2022-09-26T08:51:15.072Z,82.50
2022-09-26T08:52:15.065Z,83.01
2022-09-26T08:53:15.026Z,82.90
2022-09-26T08:54:15.120Z,82.60
2022-09-26T08:55:15.010Z,82.40
2022-09-26T08:56:14.974Z,82.70
2022-09-26T08:57:14.997Z,82.90
2022-09-26T08:58:14.959Z,82.70
2022-09-26T08:59:14.946Z,82.19
2022-09-26T09:00:14.924Z,82.09
2022-09-26T09:01:15.033Z,82.09
2022-09-26T09:02:18.076Z,83.42
2022-09-26T09:03:17.924Z,83.31
2022-09-26T09:04:14.949Z,82.80
2022-09-26T09:05:14.858Z,83.11
2022-09-26T09:06:14.848Z,83.21
2022-09-26T09:07:14.832Z,83.11
2022-09-26T09:08:14.822Z,82.87
2022-09-26T09:09:14.832Z,82.76
2022-09-26T09:10:14.790Z,82.15
2022-09-26T09:11:14.781Z,82.15
2022-09-26T09:12:14.765Z,82.76
2022-09-26T09:13:14.757Z,83.07
2022-09-26T09:14:15.011Z,83.68
2022-09-26T09:15:25.066Z,84.19
2022-09-26T09:16:15.785Z,83.78
2022-09-26T09:17:14.723Z,83.98
2022-09-26T09:18:14.682Z,84.12
2022-09-26T09:19:14.713Z,84.29
2022-09-26T09:20:14.653Z,84.19
2022-09-26T09:21:14.661Z,84.09
2022-09-26T09:22:17.654Z,84.70
2022-09-26T09:23:17.635Z,84.39
2022-09-26T09:24:14.766Z,84.39
2022-09-26T09:25:14.624Z,83.98
2022-09-26T09:28:15.561Z,84.05
2022-09-26T09:29:18.985Z,84.09
2022-09-26T09:30:16.887Z,84.29
2022-09-26T09:31:14.566Z,83.98
2022-09-26T09:32:14.508Z,84.29
2022-09-26T09:33:14.536Z,83.78
2022-09-26T09:34:14.498Z,83.13
2022-09-26T09:35:14.457Z,83.74
2022-09-26T09:36:14.512Z,83.64
2022-09-26T09:37:14.428Z,83.34
2022-09-26T09:38:14.410Z,83.44
2022-09-26T09:39:14.398Z,84.05
2022-09-26T09:40:14.449Z,83.60
2022-09-26T09:41:14.385Z,84.31
2022-09-26T09:42:17.393Z,84.31
2022-09-26T09:43:17.363Z,83.60
2022-09-26T09:44:14.417Z,84.52
2022-09-26T09:45:14.321Z,84.52
2022-09-26T09:46:14.391Z,84.38
2022-09-26T09:47:14.332Z,84.28
2022-09-26T09:48:14.292Z,85.23
2022-09-26T09:49:14.282Z,85.23
2022-09-26T09:50:14.250Z,85.03
2022-09-26T09:51:14.293Z,85.23
2022-09-26T09:52:14.225Z,84.72
2022-09-26T09:53:14.214Z,84.42
2022-09-26T09:54:14.314Z,84.42
2022-09-26T09:55:14.183Z,84.31
2022-09-26T09:56:14.176Z,85.23
2022-09-26T09:57:14.206Z,85.43
2022-09-26T09:58:14.143Z,84.72
2022-09-26T09:59:14.131Z,84.62
2022-09-26T10:00:14.128Z,85.03
2022-09-26T10:01:14.121Z,84.72
2022-09-26T10:02:17.116Z,84.01
2022-09-26T10:03:17.127Z,83.81
2022-09-26T10:04:14.291Z,84.82
2022-09-26T10:05:14.047Z,84.21
2022-09-26T10:06:46.615Z,84.15
2022-09-26T10:07:15.028Z,84.35
2022-09-26T10:08:13.999Z,83.74
2022-09-26T10:09:39.501Z,83.64
2022-09-26T10:10:15.051Z,82.68
2022-09-26T10:11:13.966Z,82.18
2022-09-26T10:12:13.954Z,83.50
2022-09-26T10:13:13.941Z,83.40
2022-09-26T10:14:14.191Z,82.59
2022-09-26T10:15:13.913Z,82.68
2022-09-26T10:16:14.010Z,82.62
2022-09-26T10:17:13.883Z,82.12
2022-09-26T10:18:29.268Z,81.81
2022-09-26T10:19:14.882Z,81.95
2022-09-26T10:20:13.864Z,82.50
2022-09-26T10:21:13.832Z,82.50
2022-09-26T10:22:16.814Z,82.29
2022-09-26T10:23:16.814Z,81.58
2022-09-26T10:24:13.858Z,81.52
2022-09-26T10:25:13.817Z,81.31
2022-09-26T10:26:13.762Z,80.91
2022-09-26T10:27:13.752Z,80.50
2022-09-26T10:28:13.732Z,80.50
2022-09-26T10:29:13.718Z,79.89
2022-09-26T10:30:13.728Z,80.29
2022-09-26T10:31:13.751Z,80.33
2022-09-26T10:32:13.679Z,80.13
2022-09-26T10:33:13.668Z,80.43
2022-09-26T10:34:13.810Z,80.54
2022-09-26T10:35:18.788Z,80.64
2022-09-26T10:36:14.621Z,80.43
2022-09-26T10:37:13.611Z,80.43
2022-09-26T10:38:13.601Z,80.13
2022-09-26T10:39:13.591Z,80.40
2022-09-26T10:40:13.627Z,80.40
2022-09-26T10:41:13.604Z,80.50
2022-09-26T10:42:16.544Z,80.26
2022-09-26T10:43:16.595Z,80.36
2022-09-26T10:44:13.522Z,81.79
2022-09-26T10:45:13.501Z,81.65
2022-09-26T10:46:13.546Z,82.76
2022-09-26T10:47:13.509Z,82.46
2022-09-26T10:48:13.462Z,82.46
2022-09-26T10:49:13.454Z,82.76
2022-09-26T10:50:13.450Z,82.62
2022-09-26T10:51:13.427Z,83.95
2022-09-26T10:52:18.231Z,83.64
2022-09-26T10:53:14.395Z,83.54
2022-09-26T10:54:13.425Z,83.84
2022-09-26T10:55:13.370Z,83.64
2022-09-26T10:56:13.357Z,83.74
2022-09-26T10:57:13.367Z,83.54
2022-09-26T10:58:14.158Z,83.13
2022-09-26T10:59:13.342Z,83.44
2022-09-26T11:00:13.298Z,83.34
2022-09-26T11:01:13.343Z,82.93
2022-09-26T11:02:16.279Z,82.93
2022-09-26T11:03:16.340Z,82.62
2022-09-26T11:04:13.433Z,83.54
2022-09-26T11:05:13.241Z,83.74
2022-09-26T11:06:13.229Z,83.54
2022-09-26T11:07:13.218Z,83.13
2022-09-26T11:08:13.222Z,82.97
2022-09-26T11:09:13.198Z,83.37
2022-09-26T11:10:13.251Z,83.27
2022-09-26T11:11:13.172Z,82.50
2022-09-26T11:12:13.142Z,81.68
2022-09-26T11:13:13.150Z,81.48
2022-09-26T11:14:13.224Z,81.82
2022-09-26T11:15:13.112Z,81.31
2022-09-26T11:16:13.312Z,80.60
2022-09-26T11:17:13.082Z,80.29
2022-09-26T11:18:13.130Z,80.80
2022-09-26T11:19:13.078Z,80.23
2022-09-26T11:20:13.104Z,80.23
2022-09-26T11:21:27.797Z,80.23
2022-09-26T11:22:17.016Z,79.32
2022-09-26T11:23:16.056Z,78.91
2022-09-26T11:24:13.002Z,78.09
2022-09-26T11:25:12.964Z,78.26
2022-09-26T11:26:12.958Z,78.87
2022-09-26T11:27:12.937Z,78.97
2022-09-26T11:28:12.928Z,78.77
2022-09-26T11:29:13.032Z,79.38
2022-09-26T11:30:12.906Z,79.07
2022-09-26T11:31:12.901Z,79.44
2022-09-26T11:32:12.880Z,79.34
2022-09-26T11:33:12.858Z,79.85
2022-09-26T11:34:12.909Z,79.95
2022-09-26T11:35:22.581Z,79.85
2022-09-26T11:36:12.930Z,80.09
2022-09-26T11:37:12.841Z,80.09
2022-09-26T11:38:12.805Z,79.79
2022-09-26T11:39:12.892Z,79.79
2022-09-26T11:40:13.008Z,79.48
2022-09-26T11:41:12.763Z,79.48
2022-09-26T11:42:15.793Z,79.38
2022-09-26T11:43:15.754Z,79.68
2022-09-26T11:44:12.735Z,79.58
2022-09-26T11:45:12.738Z,79.27
2022-09-26T11:46:12.797Z,79.38
2022-09-26T11:47:12.694Z,79.07
2022-09-26T11:48:12.689Z,78.97
2022-09-26T11:49:12.666Z,79.17
2022-09-26T11:50:12.666Z,79.38
2022-09-26T11:51:12.616Z,79.79
2022-09-26T11:52:12.628Z,79.68
2022-09-26T11:53:12.645Z,79.58
2022-09-26T11:54:12.677Z,79.17
2022-09-26T11:55:12.591Z,79.48
2022-09-26T11:56:12.567Z,80.29
2022-09-26T11:57:12.548Z,80.05
2022-09-26T11:58:13.506Z,79.95
2022-09-26T11:59:12.528Z,80.26
2022-09-26T12:00:12.538Z,80.97
2022-09-26T12:01:12.523Z,80.16
2022-09-26T12:02:15.583Z,80.05
2022-09-26T12:03:15.612Z,80.05
2022-09-26T12:04:12.639Z,79.75
2022-09-26T12:05:12.470Z,79.54
2022-09-26T12:06:12.434Z,79.64
2022-09-26T12:07:12.402Z,79.85
2022-09-26T12:08:12.402Z,80.36
2022-09-26T12:09:12.386Z,80.16
2022-09-26T12:10:12.422Z,79.54
2022-09-26T12:11:12.372Z,79.03
2022-09-26T12:12:12.353Z,78.83
2022-09-26T12:13:12.321Z,79.34
2022-09-26T12:14:12.381Z,79.64
2022-09-26T12:15:12.304Z,78.83
2022-09-26T12:16:12.397Z,79.95
2022-09-26T12:17:12.303Z,79.24
2022-09-26T12:18:12.285Z,79.54
2022-09-26T12:19:16.305Z,79.54
2022-09-26T12:20:12.256Z,79.24
2022-09-26T12:21:12.217Z,79.14
2022-09-26T12:22:15.267Z,79.54
2022-09-26T12:23:15.230Z,79.14
2022-09-26T12:24:12.261Z,78.83
2022-09-26T12:25:16.549Z,78.42
2022-09-26T12:26:13.196Z,78.32
2022-09-26T12:27:12.160Z,78.73
2022-09-26T12:28:12.220Z,78.56
2022-09-26T12:29:12.109Z,78.87
2022-09-26T12:30:12.121Z,78.77
2022-09-26T12:31:15.996Z,78.60
2022-09-26T12:32:13.089Z,78.30
2022-09-26T12:33:12.073Z,77.98
2022-09-26T12:34:12.162Z,77.48
2022-09-26T12:35:12.130Z,76.97
2022-09-26T12:36:12.030Z,76.66
2022-09-26T12:37:12.027Z,76.25
2022-09-26T12:38:12.062Z,75.95
2022-09-26T12:39:12.088Z,75.64
2022-09-26T12:40:12.046Z,75.34
2022-09-26T12:41:11.997Z,75.74
2022-09-26T12:42:15.072Z,75.48
2022-09-26T12:43:15.238Z,75.27
2022-09-26T12:44:11.923Z,75.27
2022-09-26T12:45:12.805Z,74.96
2022-09-26T12:46:11.989Z,74.55
2022-09-26T12:47:12.979Z,74.35
2022-09-26T12:48:13.951Z,74.25
2022-09-26T12:49:18.787Z,74.35
2022-09-26T12:50:11.832Z,74.35
2022-09-26T12:51:18.914Z,74.45
2022-09-26T12:52:16.785Z,74.15
2022-09-26T12:53:12.358Z,73.74
2022-09-26T12:54:15.841Z,73.74
2022-09-26T12:55:22.818Z,73.74